Time;durP1;ratioP1;P1;durP2;ratioP2;P2;SDS_P1;SDS_P2;PMS_P1;PMS_P2;Temp;Humidity;BMP_temperature;BMP_pressure;BME280_temperature;BME280_humidity;BME280_pressure;Samples;Min_cycle;Max_cycle;Signal;HPM_P1;HPM_P2
2023/07/04 00:02:16;;;;;;;9.15;2.35;;;;;;;18.27;73.91;100223.22;8304145;28;20045;-64
2023/07/04 00:06:17;;;;;;;20.48;3.50;;;;;;;18.19;74.70;100226.13;8305812;28;20033;-65
2023/07/04 00:10:20;;;;;;;11.40;2.60;;;;;;;18.12;74.71;100225.22;8305448;28;21855;-64
2023/07/04 00:14:20;;;;;;;14.45;2.90;;;;;;;18.04;75.73;100222.59;8306936;28;20333;-65
2023/07/04 00:18:22;;;;;;;8.43;2.47;;;;;;;17.85;75.93;100222.41;8302822;28;21088;-64
2023/07/04 00:22:24;;;;;;;7.90;2.88;;;;;;;17.74;76.34;100226.50;8305524;28;20037;-64
2023/07/04 00:26:26;;;;;;;7.50;2.72;;;;;;;17.69;76.60;100225.38;8306983;28;20044;-64
2023/07/04 00:30:26;;;;;;;11.52;2.65;;;;;;;17.82;75.49;100229.13;8302164;28;20048;-64
2023/07/04 00:34:27;;;;;;;6.88;2.17;;;;;;;17.66;76.27;100229.38;8305493;28;20038;-64
2023/07/04 00:38:27;;;;;;;15.25;3.05;;;;;;;17.50;77.74;100235.03;8305214;28;20128;-64
2023/07/04 00:42:29;;;;;;;8.95;2.38;;;;;;;17.51;77.75;100231.28;8306821;28;20566;-64
2023/07/04 00:47:11;;;;;;;11.65;2.30;;;;;;;17.52;77.57;100230.25;8279252;28;20092;-64
2023/07/04 00:51:21;;;;;;;8.82;2.58;;;;;;;17.50;77.14;100224.09;8315979;28;20161;-64
2023/07/04 00:55:23;;;;;;;10.63;2.33;;;;;;;17.61;76.52;100223.63;8299272;28;20041;-65
2023/07/04 00:59:23;;;;;;;10.15;2.80;;;;;;;17.39;77.83;100239.06;8301369;28;20048;-64
2023/07/04 01:03:25;;;;;;;10.60;2.30;;;;;;;17.25;78.16;100229.03;8297143;28;20042;-64
2023/07/04 01:07:35;;;;;;;12.82;2.78;;;;;;;17.29;77.94;100221.28;8302780;28;20046;-64
2023/07/04 01:11:42;;;;;;;12.13;2.22;;;;;;;17.34;77.57;100230.63;8293380;28;20042;-64
2023/07/04 01:15:43;;;;;;;15.82;2.88;;;;;;;17.38;77.57;100225.59;8295550;28;20046;-64
2023/07/04 01:19:43;;;;;;;11.85;2.70;;;;;;;17.33;78.15;100225.34;8302060;28;20042;-64
2023/07/04 01:28:02;;;;;;;15.50;3.22;;;;;;;17.05;79.67;100213.41;8395682;27;20455;-63
2023/07/04 01:32:05;;;;;;;10.05;2.90;;;;;;;16.94;80.04;100217.47;8396771;28;20032;-63
2023/07/04 01:36:09;;;;;;;9.85;2.65;;;;;;;16.93;80.69;100214.94;8401606;28;20032;-63
2023/07/04 01:40:10;;;;;;;15.32;2.83;;;;;;;16.80;81.33;100214.75;8404546;28;20108;-63
2023/07/04 01:44:11;;;;;;;9.90;2.88;;;;;;;16.85;81.55;100223.19;8402555;28;20040;-63
2023/07/04 01:48:12;;;;;;;11.55;3.67;;;;;;;16.73;81.93;100219.25;8399986;28;20075;-63
2023/07/04 01:52:13;;;;;;;15.02;2.92;;;;;;;16.62;82.55;100217.00;8397932;28;20064;-63
2023/07/04 01:56:14;;;;;;;9.15;3.58;;;;;;;16.61;82.82;100223.47;8395196;28;20052;-63
2023/07/04 02:00:15;;;;;;;9.20;2.47;;;;;;;16.66;83.25;100215.56;8399441;28;20045;-63
2023/07/04 02:04:33;;;;;;;9.80;2.83;;;;;;;16.54;83.49;100217.06;8398817;28;20447;-63
2023/07/04 02:08:34;;;;;;;14.75;3.40;;;;;;;16.45;84.33;100215.44;8422821;28;20049;-63
2023/07/04 02:12:34;;;;;;;10.63;2.78;;;;;;;16.31;84.95;100213.53;8396839;28;20131;-63
2023/07/04 02:16:35;;;;;;;11.13;3.42;;;;;;;16.34;85.56;100218.56;8402316;28;20044;-63
2023/07/04 02:20:35;;;;;;;12.68;3.20;;;;;;;16.32;85.78;100220.66;8399844;28;20573;-63
2023/07/04 02:24:36;;;;;;;10.93;2.80;;;;;;;16.31;86.25;100218.97;8399891;28;20040;-63
2023/07/04 02:28:39;;;;;;;10.65;3.10;;;;;;;16.35;86.61;100223.03;8399691;28;20509;-63
2023/07/04 02:32:40;;;;;;;11.82;2.58;;;;;;;16.30;86.69;100233.63;8395929;28;21094;-63
2023/07/04 02:36:41;;;;;;;9.95;3.13;;;;;;;16.17;87.18;100233.41;8391532;28;20419;-63
2023/07/04 02:40:45;;;;;;;9.30;3.13;;;;;;;16.11;87.82;100239.59;8379455;28;20440;-63
2023/07/04 02:44:46;;;;;;;13.63;3.03;;;;;;;16.06;88.01;100233.81;8366474;28;20121;-66
2023/07/04 02:48:46;;;;;;;11.50;2.92;;;;;;;16.15;87.89;100235.47;8383054;28;20032;-66
2023/07/04 02:52:47;;;;;;;10.90;2.80;;;;;;;16.14;87.95;100244.69;8378002;28;20037;-61
2023/07/04 02:56:48;;;;;;;15.50;3.33;;;;;;;16.02;89.08;100236.09;8377664;28;20048;-61
2023/07/04 03:00:49;;;;;;;13.88;3.35;;;;;;;16.01;89.39;100228.09;8394828;28;20123;-61
2023/07/04 03:04:52;;;;;;;13.02;2.72;;;;;;;15.92;89.74;100234.63;8377449;28;20037;-61
2023/07/04 03:08:56;;;;;;;15.98;3.08;;;;;;;15.93;89.34;100233.59;8378437;28;20546;-61
2023/07/04 03:12:57;;;;;;;14.63;2.85;;;;;;;15.90;89.79;100236.69;8374072;28;20119;-61
2023/07/04 03:17:02;;;;;;;18.90;4.55;;;;;;;15.88;89.56;100233.28;8374931;28;20061;-61
2023/07/04 03:21:03;;;;;;;14.13;3.28;;;;;;;15.83;90.82;100241.16;8378213;28;20127;-61
2023/07/04 03:25:04;;;;;;;18.42;3.10;;;;;;;15.72;90.71;100239.72;8375688;28;20409;-61
2023/07/04 03:29:06;;;;;;;15.85;3.45;;;;;;;15.67;91.44;100245.69;8376776;28;20043;-61
2023/07/04 03:33:07;;;;;;;16.60;3.65;;;;;;;15.69;91.71;100246.38;8376098;28;20032;-61
2023/07/04 03:37:08;;;;;;;11.27;3.17;;;;;;;15.77;91.80;100241.91;8376731;28;20127;-61
2023/07/04 03:41:08;;;;;;;16.40;3.78;;;;;;;15.73;92.33;100236.81;8376280;28;20044;-61
2023/07/04 03:45:10;;;;;;;10.35;2.53;;;;;;;15.71;92.68;100238.84;8376397;28;20045;-61
2023/07/04 03:49:10;;;;;;;18.98;3.47;;;;;;;15.73;93.13;100246.84;8375315;28;20510;-61
2023/07/04 03:53:11;;;;;;;11.68;2.95;;;;;;;15.62;93.30;100245.38;8375151;28;20441;-61
2023/07/04 03:57:12;;;;;;;17.98;3.47;;;;;;;15.65;93.30;100255.09;8375399;28;20129;-61
2023/07/04 04:01:12;;;;;;;21.67;3.25;;;;;;;15.68;93.72;100247.38;8360012;28;20075;-61
2023/07/04 04:05:13;;;;;;;17.80;3.22;;;;;;;15.68;93.63;100252.84;8371041;28;20115;-61
2023/07/04 04:09:13;;;;;;;17.42;3.28;;;;;;;15.81;93.56;100254.13;8372739;28;20045;-61
2023/07/04 04:13:14;;;;;;;10.85;2.95;;;;;;;15.86;93.14;100254.44;8368747;28;20079;-61
2023/07/04 04:17:14;;;;;;;14.88;3.72;;;;;;;15.90;93.22;100253.03;8367308;28;20494;-61
2023/07/04 04:21:14;;;;;;;13.88;3.25;;;;;;;15.94;93.25;100257.09;8367566;28;20502;-61
2023/07/04 04:25:16;;;;;;;12.38;3.20;;;;;;;16.00;93.48;100254.50;8372410;28;20044;-61
2023/07/04 04:29:17;;;;;;;12.13;3.25;;;;;;;16.04;93.03;100255.00;8349599;28;20063;-60
2023/07/04 04:33:19;;;;;;;13.48;3.78;;;;;;;16.12;92.78;100268.56;8368412;28;20039;-66
2023/07/04 04:37:23;;;;;;;11.47;2.77;;;;;;;16.21;92.43;100257.41;8372346;28;20109;-66
2023/07/04 04:41:23;;;;;;;16.55;3.20;;;;;;;16.35;92.28;100266.69;8372909;28;20278;-66
2023/07/04 04:45:24;;;;;;;20.90;4.05;;;;;;;16.50;91.25;100267.59;8371544;28;20037;-67
2023/07/04 04:49:24;;;;;;;11.07;2.75;;;;;;;16.62;90.03;100255.19;8371871;28;20036;-66
2023/07/04 04:53:25;;;;;;;17.90;3.80;;;;;;;16.74;90.02;100265.47;8372436;28;20041;-66
2023/07/04 04:57:28;;;;;;;11.90;2.75;;;;;;;16.88;88.98;100282.91;8366307;28;20052;-66
2023/07/04 05:01:29;;;;;;;14.35;2.75;;;;;;;17.02;88.82;100274.72;8340543;28;20391;-66
2023/07/04 05:05:30;;;;;;;13.05;2.55;;;;;;;17.05;88.21;100273.50;8333466;28;20346;-66
2023/07/04 05:09:31;;;;;;;16.13;2.80;;;;;;;17.21;88.22;100278.78;8336230;28;20223;-66
2023/07/04 05:13:34;;;;;;;17.42;2.92;;;;;;;17.34;86.98;100281.69;8368202;28;20037;-66
2023/07/04 05:17:34;;;;;;;14.15;2.70;;;;;;;17.60;86.19;100287.56;8339497;28;20499;-66
2023/07/04 05:21:34;;;;;;;17.27;2.97;;;;;;;17.74;85.02;100281.19;8334896;28;20403;-66
2023/07/04 05:25:35;;;;;;;11.40;2.72;;;;;;;17.93;84.09;100279.72;8363941;28;20087;-68
2023/07/04 05:29:35;;;;;;;11.07;2.70;;;;;;;18.14;83.15;100288.78;8335847;28;20633;-66
2023/07/04 05:37:37;;;;;;;14.10;2.65;;;;;;;18.31;81.43;100301.19;8336945;28;20486;-66
2023/07/04 05:41:38;;;;;;;15.97;2.90;;;;;;;18.41;80.59;100299.00;8334199;28;20490;-66
2023/07/04 05:45:47;;;;;;;15.48;2.65;;;;;;;18.36;80.16;100293.22;8333884;28;20685;-68
2023/07/04 05:49:47;;;;;;;17.75;3.03;;;;;;;18.37;80.89;100305.06;8333924;28;20065;-66
2023/07/04 05:53:49;;;;;;;11.70;2.60;;;;;;;18.45;80.58;100310.41;8337540;28;20045;-66
2023/07/04 05:57:50;;;;;;;11.98;3.03;;;;;;;18.81;79.20;100309.25;8338022;28;20052;-66
2023/07/04 06:01:51;;;;;;;15.02;3.22;;;;;;;18.91;78.45;100312.47;8337709;28;20041;-66
2023/07/04 06:05:52;;;;;;;21.02;3.15;;;;;;;19.03;78.05;100313.63;8336337;28;20541;-66
2023/07/04 06:09:52;;;;;;;11.77;2.95;;;;;;;19.11;77.39;100318.97;8335474;28;20629;-66
2023/07/04 06:13:53;;;;;;;12.00;3.33;;;;;;;19.29;76.94;100319.34;8342023;28;20383;-66
2023/07/04 06:17:54;;;;;;;23.80;3.13;;;;;;;19.47;76.83;100321.53;8340709;28;20029;-66
2023/07/04 06:21:55;;;;;;;14.38;3.05;;;;;;;19.38;76.35;100334.59;8344865;28;20448;-66
2023/07/04 06:25:56;;;;;;;17.13;5.38;;;;;;;19.33;76.47;100326.09;8341606;28;20041;-66
2023/07/04 06:29:57;;;;;;;14.60;3.30;;;;;;;19.15;76.13;100323.00;8344025;28;20055;-66
2023/07/04 06:33:57;;;;;;;11.18;2.67;;;;;;;19.27;76.06;100315.94;8338807;28;20096;-66
2023/07/04 06:37:58;;;;;;;17.83;3.10;;;;;;;19.80;75.39;100321.72;8343115;28;20051;-66
2023/07/04 06:41:58;;;;;;;17.13;3.22;;;;;;;19.89;74.40;100326.81;8341502;28;20522;-62
2023/07/04 06:46:06;;;;;;;16.85;2.90;;;;;;;19.90;73.86;100333.13;8342183;28;20041;-66
2023/07/04 06:50:07;;;;;;;20.60;3.72;;;;;;;20.21;74.02;100326.09;8340320;28;20093;-66
2023/07/04 06:54:08;;;;;;;14.68;3.45;;;;;;;20.18;72.25;100332.00;8342615;28;20048;-65
2023/07/04 06:58:08;;;;;;;20.33;3.00;;;;;;;20.15;71.83;100343.41;8339051;28;20089;-65
2023/07/04 07:02:08;;;;;;;18.85;3.53;;;;;;;20.14;72.25;100341.72;8335568;28;20087;-67
2023/07/04 07:06:11;;;;;;;19.42;3.72;;;;;;;20.68;70.87;100347.13;8369896;28;20523;-67
2023/07/04 07:10:12;;;;;;;30.45;5.00;;;;;;;20.72;70.19;100342.88;8342230;28;20587;-67
2023/07/04 07:14:12;;;;;;;28.67;7.15;;;;;;;20.57;71.04;100348.59;8341967;28;20471;-67
2023/07/04 07:18:13;;;;;;;16.10;4.47;;;;;;;20.95;70.08;100362.59;8340507;28;20096;-67
2023/07/04 07:22:14;;;;;;;15.00;3.28;;;;;;;21.08;68.74;100343.34;8342484;28;20557;-66
2023/07/04 07:26:18;;;;;;;16.88;2.70;;;;;;;20.80;69.16;100359.19;8339250;28;20049;-66
2023/07/04 07:30:18;;;;;;;;;;;;;;;20.99;68.97;100358.38;8339548;28;20068;-66
2023/07/04 07:34:19;;;;;;;18.67;2.93;;;;;;;21.11;68.59;100352.00;8335297;28;19960;-66
2023/07/04 07:38:19;;;;;;;12.07;2.65;;;;;;;21.07;68.19;100360.88;8339848;28;20807;-67
2023/07/04 07:42:20;;;;;;;16.55;4.00;;;;;;;21.56;68.33;100353.00;8339980;28;20033;-66
2023/07/04 07:46:20;;;;;;;21.35;6.20;;;;;;;21.99;65.68;100362.41;8339766;28;20037;-67
2023/07/04 07:50:21;;;;;;;18.88;4.75;;;;;;;22.40;64.66;100360.09;8341646;28;20072;-67
2023/07/04 07:54:21;;;;;;;17.15;3.33;;;;;;;22.29;63.34;100355.28;8338199;28;20155;-67
2023/07/04 07:58:22;;;;;;;26.75;7.55;;;;;;;21.99;63.70;100365.16;8341193;28;20040;-66
2023/07/04 08:02:22;;;;;;;13.68;4.00;;;;;;;22.06;62.76;100363.25;8337260;28;20039;-66
2023/07/04 08:10:40;;;;;;;11.95;2.58;;;;;;;22.39;62.57;100361.19;8391989;27;20397;-68
2023/07/04 08:14:41;;;;;;;14.45;2.88;;;;;;;21.79;63.95;100356.16;8381196;27;20032;-67
2023/07/04 08:18:41;;;;;;;10.45;2.17;;;;;;;21.74;62.38;100361.44;8382950;27;20036;-66
2023/07/04 08:22:42;;;;;;;10.65;2.75;;;;;;;22.28;62.14;100350.84;8381818;27;20044;-67
2023/07/04 08:26:44;;;;;;;18.93;4.13;;;;;;;22.66;58.89;100348.09;8382871;28;20048;-67
2023/07/04 08:30:45;;;;;;;11.48;3.72;;;;;;;22.74;59.35;100351.44;8378872;27;20287;-66
2023/07/04 08:34:46;;;;;;;11.88;3.15;;;;;;;22.80;58.09;100344.16;8380065;28;20174;-66
2023/07/04 08:38:48;;;;;;;26.60;6.75;;;;;;;23.10;58.49;100351.56;8381974;27;20085;-66
2023/07/04 08:42:49;;;;;;;10.30;3.10;;;;;;;23.25;57.57;100348.47;8381961;27;20045;-66
2023/07/04 08:46:53;;;;;;;9.82;1.88;;;;;;;23.46;57.30;100349.97;8386486;28;20043;-66
2023/07/04 08:50:58;;;;;;;8.73;2.55;;;;;;;23.79;57.13;100353.22;8380791;28;20044;-66
2023/07/04 08:54:58;;;;;;;9.45;2.38;;;;;;;23.30;56.76;100356.09;8382334;27;20056;-65
2023/07/04 08:59:22;;;;;;;11.07;2.08;;;;;;;23.33;56.52;100369.44;8380775;27;20122;-66
2023/07/04 09:08:22;;;;;;;11.45;3.22;;;;;;;23.21;57.64;100375.63;8391443;27;20493;-66
2023/07/04 09:12:24;;;;;;;6.07;2.58;;;;;;;23.27;57.89;100368.44;8378308;27;20037;-67
2023/07/04 09:16:33;;;;;;;10.57;2.85;;;;;;;23.68;57.10;100365.88;8383538;27;20083;-66
2023/07/04 09:20:40;;;;;;;9.88;2.50;;;;;;;23.90;57.01;100367.09;8375180;27;20039;-66
2023/07/04 09:24:41;;;;;;;8.20;3.38;;;;;;;24.17;56.26;100373.16;8381070;27;20111;-68
2023/07/04 09:28:45;;;;;;;22.38;5.53;;;;;;;24.55;56.06;100368.19;8381318;28;20057;-66
2023/07/04 09:32:45;;;;;;;7.38;3.10;;;;;;;24.64;54.99;100380.63;8375671;27;20040;-67
2023/07/04 09:36:47;;;;;;;8.37;3.30;;;;;;;25.26;54.57;100387.50;8379355;27;20037;-67
2023/07/04 09:40:52;;;;;;;11.75;3.30;;;;;;;25.11;56.36;100387.97;8380536;27;20284;-67
2023/07/04 09:44:54;;;;;;;14.05;4.68;;;;;;;24.71;55.85;100395.22;8380196;28;20037;-66
2023/07/04 09:49:15;;;;;;;14.85;5.10;;;;;;;24.56;56.49;100403.06;8380505;28;20044;-66
2023/07/04 09:53:18;;;;;;;10.27;3.40;;;;;;;24.30;56.12;100386.81;8398330;27;20045;-67
2023/07/04 09:57:24;;;;;;;9.80;3.45;;;;;;;24.34;55.94;100394.41;8398208;27;20055;-66
2023/07/04 10:01:24;;;;;;;10.90;3.22;;;;;;;24.94;55.09;100389.75;8386294;27;20307;-66
2023/07/04 10:05:28;;;;;;;12.88;3.72;;;;;;;25.96;52.71;100389.22;8380960;27;20060;-66
2023/07/04 10:09:30;;;;;;;5.93;2.70;;;;;;;26.17;52.20;100385.84;8380745;27;20055;-65
2023/07/04 10:13:37;;;;;;;14.98;4.40;;;;;;;26.28;51.90;100383.03;8380461;27;20061;-65
2023/07/04 10:17:40;;;;;;;6.72;3.42;;;;;;;27.42;50.19;100390.19;8367135;28;20110;-65
2023/07/04 10:21:45;;;;;;;10.10;3.72;;;;;;;26.39;52.20;100381.31;8360687;28;20029;-65
2023/07/04 10:25:48;;;;;;;11.30;4.65;;;;;;;27.52;49.69;100382.00;8390397;28;20599;-65
2023/07/04 10:29:54;;;;;;;9.93;3.50;;;;;;;29.13;47.51;100360.75;8356199;28;20052;-67
2023/07/04 10:34:00;;;;;;;12.10;3.55;;;;;;;29.73;46.17;100360.38;8351668;28;20041;-65
2023/07/04 10:38:04;;;;;;;7.07;3.33;;;;;;;29.87;44.86;100361.56;8352138;28;20044;-66
2023/07/04 10:42:16;;;;;;;22.20;7.18;;;;;;;30.30;44.14;100356.53;8356436;28;20469;-67
2023/07/04 10:46:22;;;;;;;14.50;5.88;;;;;;;29.98;45.74;100361.34;8355591;28;20123;-68
2023/07/04 10:50:29;;;;;;;17.40;5.47;;;;;;;30.77;44.07;100377.91;8357338;28;20042;-67
2023/07/04 10:54:30;;;;;;;8.18;3.85;;;;;;;30.60;44.36;100371.66;8354721;28;20506;-66
2023/07/04 10:58:36;;;;;;;11.63;4.45;;;;;;;30.99;42.71;100375.69;8355985;28;20417;-67
2023/07/04 11:02:43;;;;;;;17.48;6.63;;;;;;;30.65;42.57;100371.69;8350060;28;20045;-68
2023/07/04 11:06:49;;;;;;;40.65;6.10;;;;;;;30.00;43.24;100375.88;8354846;28;20117;-67
2023/07/04 11:10:56;;;;;;;8.48;3.60;;;;;;;28.86;45.44;100368.25;8356909;28;20048;-66
2023/07/04 11:15:01;;;;;;;11.32;3.67;;;;;;;29.59;44.48;100379.50;8349393;28;20073;-65
2023/07/04 11:19:25;;;;;;;12.25;4.40;;;;;;;29.53;44.20;100365.78;8350792;28;20029;-65
2023/07/04 11:23:50;;;;;;;10.40;4.28;;;;;;;28.02;46.66;100366.09;8353454;28;20041;-65
2023/07/04 11:28:12;;;;;;;7.72;4.20;;;;;;;28.22;46.40;100364.44;8368506;28;20037;-67
2023/07/04 11:32:18;;;;;;;8.70;4.30;;;;;;;28.80;45.06;100360.94;8367386;28;20045;-65
2023/07/04 11:36:26;;;;;;;7.65;4.07;;;;;;;28.09;45.45;100350.09;8368080;28;20263;-65
2023/07/04 11:40:31;;;;;;;7.25;4.25;;;;;;;27.30;47.41;100365.31;8368882;28;20041;-65
2023/07/04 11:44:47;;;;;;;9.80;4.50;;;;;;;28.73;45.04;100356.69;8370729;28;20043;-65
2023/07/04 11:48:51;;;;;;;8.93;5.00;;;;;;;29.76;42.92;100345.91;8371259;28;20041;-65
2023/07/04 11:52:56;;;;;;;9.43;4.38;;;;;;;29.76;43.12;100352.31;8369638;28;20040;-65
2023/07/04 11:56:57;;;;;;;12.95;4.53;;;;;;;29.87;43.72;100354.06;8371045;28;20502;-66
2023/07/04 12:01:03;;;;;;;15.88;5.15;;;;;;;30.70;41.44;100343.81;8367135;28;20408;-66
2023/07/04 12:05:03;;;;;;;18.73;5.50;;;;;;;30.63;42.14;100334.81;8359270;28;20044;-65
2023/07/04 12:09:08;;;;;;;6.35;4.07;;;;;;;29.97;42.55;100334.56;8368023;28;20374;-65
2023/07/04 12:13:09;;;;;;;10.95;5.32;;;;;;;29.98;42.89;100336.25;8369230;28;20033;-65
2023/07/04 12:17:11;;;;;;;9.35;5.10;;;;;;;28.21;45.60;100339.69;8367986;28;20051;-66
2023/07/04 12:21:16;;;;;;;8.98;5.32;;;;;;;27.22;47.99;100320.41;8370258;28;20413;-65
2023/07/04 12:25:21;;;;;;;12.23;5.88;;;;;;;27.15;46.58;100333.63;8366492;28;20498;-65
2023/07/04 12:29:22;;;;;;;10.32;5.15;;;;;;;27.51;46.92;100316.47;8370842;28;20044;-66
2023/07/04 12:33:25;;;;;;;11.48;5.30;;;;;;;26.96;49.04;100324.72;8366019;28;20053;-66
2023/07/04 12:37:27;;;;;;;14.32;5.82;;;;;;;27.05;47.28;100320.44;8367622;28;20137;-66
2023/07/04 12:41:30;;;;;;;11.57;5.30;;;;;;;26.88;48.13;100310.41;8368431;28;20109;-66
2023/07/04 12:45:31;;;;;;;10.90;5.10;;;;;;;27.09;48.44;100296.63;8367699;28;20381;-66
2023/07/04 12:49:32;;;;;;;8.07;5.20;;;;;;;27.17;46.26;100310.06;8368649;28;20099;-66
2023/07/04 12:53:33;;;;;;;7.82;5.15;;;;;;;26.99;46.30;100299.25;8369171;28;20054;-66
2023/07/04 12:57:34;;;;;;;9.90;5.88;;;;;;;27.25;46.79;100295.78;8368768;28;20379;-66
2023/07/04 13:01:35;;;;;;;8.95;5.22;;;;;;;26.97;47.48;100308.88;8366980;28;20046;-66
2023/07/04 13:05:41;;;;;;;20.48;6.30;;;;;;;26.89;46.50;100298.22;8369658;28;20086;-66
2023/07/04 13:09:43;;;;;;;8.45;5.13;;;;;;;26.89;47.19;100290.72;8368167;28;20040;-66
2023/07/04 13:13:47;;;;;;;10.68;5.47;;;;;;;27.03;47.15;100297.63;8369378;28;20038;-66
2023/07/04 13:17:53;;;;;;;10.75;5.68;;;;;;;27.28;47.14;100292.50;8366650;28;20120;-66
2023/07/04 13:21:56;;;;;;;8.38;4.82;;;;;;;27.18;46.57;100294.25;8369754;28;20063;-66
2023/07/04 13:25:57;;;;;;;12.80;5.53;;;;;;;26.86;48.76;100293.19;8365950;28;20517;-66
2023/07/04 13:30:00;;;;;;;12.00;5.43;;;;;;;27.02;47.54;100300.66;8364833;28;20056;-66
2023/07/04 13:34:24;;;;;;;10.73;5.63;;;;;;;26.69;46.63;100293.16;8373662;28;20047;-65
2023/07/04 13:38:24;;;;;;;11.98;5.55;;;;;;;26.68;48.11;100281.22;8370363;28;20406;-66
2023/07/04 13:42:25;;;;;;;8.23;5.60;;;;;;;26.55;48.13;100284.28;8367822;28;20040;-67
2023/07/04 13:46:25;;;;;;;11.77;5.90;;;;;;;26.46;49.65;100274.69;8366368;28;20504;-68
2023/07/04 13:50:26;;;;;;;10.27;5.45;;;;;;;26.69;48.74;100269.03;8368041;28;20097;-66
2023/07/04 13:54:26;;;;;;;8.50;5.30;;;;;;;26.79;47.58;100269.22;8371730;28;20063;-66
2023/07/04 13:58:27;;;;;;;8.77;5.60;;;;;;;26.84;46.63;100271.22;8374792;28;20487;-67
2023/07/04 14:02:28;;;;;;;10.57;6.25;;;;;;;26.95;47.05;100263.91;8371150;28;20044;-66
2023/07/04 14:06:30;;;;;;;11.40;5.45;;;;;;;27.04;47.92;100262.41;8374073;28;20402;-66
2023/07/04 14:10:30;;;;;;;12.88;5.55;;;;;;;27.02;48.31;100259.03;8372325;28;20085;-65
2023/07/04 14:14:31;;;;;;;9.15;5.40;;;;;;;26.82;48.13;100262.31;8372479;28;20122;-66
2023/07/04 14:18:32;;;;;;;12.27;5.43;;;;;;;26.60;48.05;100264.94;8373899;28;20040;-66
2023/07/04 14:22:32;;;;;;;12.63;6.13;;;;;;;26.60;47.16;100253.03;8370867;28;20279;-66
2023/07/04 14:26:32;;;;;;;9.32;5.57;;;;;;;26.52;47.71;100251.50;8374172;28;20042;-66
2023/07/04 14:30:33;;;;;;;10.40;5.10;;;;;;;26.58;49.42;100250.50;8371286;28;20052;-66
2023/07/04 14:34:34;;;;;;;9.82;4.85;;;;;;;26.64;48.64;100254.22;8370548;28;20037;-66
2023/07/04 14:38:35;;;;;;;10.80;5.25;;;;;;;26.64;48.59;100249.53;8372199;28;20044;-65
2023/07/04 14:42:36;;;;;;;12.20;5.10;;;;;;;26.49;48.83;100251.16;8372448;28;20033;-66
2023/07/04 14:46:36;;;;;;;14.95;5.05;;;;;;;26.38;49.01;100244.59;8374768;28;20028;-66
2023/07/04 14:50:37;;;;;;;9.60;4.93;;;;;;;26.04;48.70;100237.28;8374005;28;20040;-66
2023/07/04 14:54:38;;;;;;;9.90;5.00;;;;;;;25.72;50.45;100247.16;8370284;28;20581;-66
2023/07/04 14:58:39;;;;;;;8.38;5.05;;;;;;;25.57;50.35;100241.28;8373022;28;20447;-65
2023/07/04 15:02:39;;;;;;;8.65;5.32;;;;;;;25.37;51.67;100232.53;8368794;28;20037;-66
2023/07/04 15:06:40;;;;;;;15.27;5.90;;;;;;;25.18;52.02;100236.50;8371569;28;20040;-66
2023/07/04 15:10:43;;;;;;;13.70;5.80;;;;;;;25.32;51.85;100224.13;8362719;28;20810;-66
2023/07/04 15:14:44;;;;;;;7.80;5.15;;;;;;;25.66;51.33;100228.75;8367905;28;20283;-67
2023/07/04 15:18:44;;;;;;;9.40;4.80;;;;;;;25.82;49.17;100225.19;8370682;28;20136;-66
2023/07/04 15:22:46;;;;;;;12.98;5.22;;;;;;;25.88;50.29;100223.34;8370140;28;20039;-66
2023/07/04 15:26:47;;;;;;;8.23;4.90;;;;;;;25.93;50.69;100213.22;8367564;28;20048;-66
2023/07/04 15:30:50;;;;;;;7.68;4.57;;;;;;;26.12;51.02;100206.41;8369287;28;20040;-67
2023/07/04 15:34:51;;;;;;;10.18;4.38;;;;;;;26.06;49.25;100196.31;8365454;28;20040;-66
2023/07/04 15:38:52;;;;;;;8.32;4.40;;;;;;;25.95;51.00;100199.13;8367558;28;20047;-66
2023/07/04 15:42:52;;;;;;;9.68;4.60;;;;;;;25.90;50.86;100188.78;8368070;28;20064;-67
2023/07/04 15:46:53;;;;;;;11.18;5.10;;;;;;;25.99;50.34;100181.78;8369500;28;20032;-66
2023/07/04 15:50:55;;;;;;;9.63;4.80;;;;;;;25.81;50.14;100181.97;8356575;28;20448;-61
2023/07/04 15:54:55;;;;;;;10.40;4.90;;;;;;;25.80;50.95;100169.19;8367483;28;20474;-61
2023/07/04 15:58:56;;;;;;;11.82;5.28;;;;;;;25.74;50.29;100175.72;8364874;28;20208;-62
2023/07/04 16:02:56;;;;;;;9.90;4.80;;;;;;;25.56;51.35;100167.63;8390006;28;20443;-61
2023/07/04 16:06:58;;;;;;;11.88;4.47;;;;;;;25.60;51.83;100160.50;8371308;28;20068;-61
2023/07/04 16:11:02;;;;;;;16.00;5.25;;;;;;;25.49;51.02;100155.81;8367240;28;20044;-61
2023/07/04 16:15:02;;;;;;;15.38;5.47;;;;;;;25.41;50.77;100158.16;8366298;28;20075;-62
2023/07/04 16:19:03;;;;;;;11.73;5.25;;;;;;;25.47;52.72;100158.03;8368283;28;20068;-61
2023/07/04 16:23:04;;;;;;;8.87;4.90;;;;;;;25.43;52.17;100145.72;8365818;28;20045;-61
2023/07/04 16:27:05;;;;;;;14.02;4.57;;;;;;;25.33;53.20;100140.00;8368899;28;20295;-62
2023/07/04 16:31:07;;;;;;;9.15;4.57;;;;;;;25.65;52.38;100140.38;8362999;28;20063;-61
2023/07/04 16:35:08;;;;;;;8.05;4.32;;;;;;;25.51;51.81;100125.97;8367017;28;20398;-61
2023/07/04 16:39:09;;;;;;;10.27;4.22;;;;;;;25.45;54.38;100121.41;8366197;28;20036;-61
2023/07/04 16:43:09;;;;;;;9.50;4.80;;;;;;;25.23;52.88;100123.16;8370016;28;20039;-61
2023/07/04 16:47:10;;;;;;;9.95;4.95;;;;;;;25.24;52.00;100112.91;8367406;28;20045;-61
2023/07/04 16:51:13;;;;;;;8.98;4.47;;;;;;;25.31;53.22;100114.44;8397942;28;20036;-61
2023/07/04 16:55:13;;;;;;;9.68;4.90;;;;;;;25.34;52.51;100110.41;8368167;28;20037;-62
2023/07/04 16:59:13;;;;;;;10.15;4.95;;;;;;;25.38;52.23;100108.81;8362112;28;20098;-61
2023/07/04 17:03:14;;;;;;;13.65;4.90;;;;;;;25.14;52.41;100101.63;8359590;28;20509;-61
2023/07/04 17:07:14;;;;;;;12.30;4.38;;;;;;;25.10;53.43;100111.50;8366422;28;20045;-61
2023/07/04 17:11:15;;;;;;;10.43;4.55;;;;;;;25.01;53.88;100097.22;8366236;28;20268;-61
2023/07/04 17:15:15;;;;;;;11.18;4.70;;;;;;;25.07;56.21;100093.50;8365080;28;20056;-61
2023/07/04 17:19:16;;;;;;;13.25;4.88;;;;;;;25.01;55.39;100091.69;8367283;28;20410;-61
2023/07/04 17:23:16;;;;;;;7.40;4.53;;;;;;;24.89;54.17;100082.59;8364728;28;20041;-62
2023/07/04 17:27:17;;;;;;;10.10;5.22;;;;;;;24.84;55.08;100079.69;8368609;28;20506;-61
2023/07/04 17:31:17;;;;;;;10.18;5.35;;;;;;;24.80;54.19;100072.97;8370950;28;20037;-61
2023/07/04 17:35:18;;;;;;;8.35;4.80;;;;;;;24.95;53.80;100065.00;8372464;28;20050;-61
2023/07/04 17:39:18;;;;;;;12.90;5.20;;;;;;;24.86;53.36;100070.06;8374491;28;20077;-62
2023/07/04 17:43:18;;;;;;;8.57;4.95;;;;;;;24.72;55.57;100070.56;8374205;28;20398;-61
2023/07/04 17:47:19;;;;;;;10.15;4.68;;;;;;;24.74;53.42;100066.47;8374439;28;20037;-62
2023/07/04 17:51:23;;;;;;;9.05;5.00;;;;;;;24.72;55.01;100065.03;8375938;28;20032;-61
2023/07/04 17:55:23;;;;;;;9.02;5.10;;;;;;;24.60;56.60;100067.81;8372227;28;20534;-61
2023/07/04 17:59:23;;;;;;;11.40;4.80;;;;;;;24.42;59.22;100069.84;8374659;28;20515;-61
2023/07/04 18:03:24;;;;;;;10.40;5.18;;;;;;;24.18;64.54;100057.13;8370539;28;20527;-61
2023/07/04 18:07:25;;;;;;;9.88;5.00;;;;;;;23.81;60.72;100052.84;8373680;28;20065;-61
2023/07/04 18:11:27;;;;;;;15.73;5.07;;;;;;;23.89;59.46;100052.50;8373815;28;20254;-61
2023/07/04 18:15:28;;;;;;;9.10;4.07;;;;;;;23.94;60.50;100049.88;8371483;28;20033;-68
2023/07/04 18:19:28;;;;;;;12.35;5.10;;;;;;;23.82;61.20;100054.53;8372372;28;20068;-66
2023/07/04 18:23:29;;;;;;;13.63;5.10;;;;;;;23.50;64.30;100047.59;8370495;28;20397;-64
2023/07/04 18:27:30;;;;;;;11.57;5.05;;;;;;;23.40;61.91;100044.56;8374560;28;20306;-64
2023/07/04 18:31:31;;;;;;;10.93;4.53;;;;;;;23.37;65.10;100025.72;8369176;28;20688;-61
2023/07/04 18:35:31;;;;;;;10.27;5.35;;;;;;;23.21;64.63;100014.25;8369292;28;20533;-61
2023/07/04 18:39:32;;;;;;;14.90;4.70;;;;;;;23.12;64.47;100012.91;8369279;28;20052;-60
2023/07/04 18:43:32;;;;;;;15.13;5.50;;;;;;;23.06;64.53;100008.31;8368075;28;20025;-60
2023/07/04 18:47:33;;;;;;;11.00;4.90;;;;;;;23.01;62.62;100005.44;8372132;28;20520;-60
2023/07/04 18:51:38;;;;;;;15.43;5.68;;;;;;;23.05;63.02;100005.78;8371681;28;20462;-60
2023/07/04 18:55:39;;;;;;;9.98;4.75;;;;;;;23.04;63.08;100004.97;8370571;28;20037;-66